PWSweather.com
Personal Weather Stations
Station Observations
IROGLAN40
AalgaardNO 4330

AalgaardNO 4330

Lat: 58.773, Lon: 5.846

Elevation: 326

Station Type: Davis Vanatge Pro2

Latest ConditionsUpdated 12:30:02 PM GMT+01:01 Thursday, Apr 26, 2018
Currently Today's Max Today's Min Today's Average
Temperature 48.6°F9.2°C 49.5°F9.7°C 42.4°F5.8°C 44.4°F6.9°C
Dew Point 42.3°F5.7°C 44.4°F6.9°C 39.7°F4.3°C 41.2°F5.1°C
Winds 5.8 mph WNW9.3 kmh WNW 6.9 mph SE11.1 kmh SE - 2.7 mph 4.3 kmh
Wind Gusts 8.1 mph13.0 kmh 10.4 mph16.7 kmh - -
Humidity 79% 91% 79% 88%
Pressure 29.58 in1001.7 mb 29.58 in1001.7 mb 29.54 in1000.3 mb -
Precipitation - 0.02 in0.5 mm - -
Hour Temp Dew Point Humidity Winds Wind Gusts Pressure Precip Precip Rate Daily Precip Total
12:30 PM 48.6°F9.2°C 42.3°F5.7°C 79% 5.8 mph WNW9.3 kmh WNW 8.1 mph13.0 kmh 29.58 in1001.7 mb - 0.00 in0.0 mm 0.02 in0.5 mm
12:20 PM 49.5°F9.7°C 43.6°F6.4°C 80% 3.5 mph WNW5.6 kmh WNW 9.2 mph14.8 kmh 29.58 in1001.7 mb - 0.00 in0.0 mm 0.02 in0.5 mm
12:10 PM 49.4°F9.7°C 43.8°F6.6°C 81% 1.2 mph WSW1.9 kmh WSW 3.5 mph5.6 kmh 29.58 in1001.7 mb - 0.00 in0.0 mm 0.02 in0.5 mm
12:00 PM 49.4°F9.7°C 43.8°F6.6°C 81% 3.5 mph S5.6 kmh S 5.8 mph9.3 kmh 29.58 in1001.7 mb - 0.00 in0.0 mm 0.02 in0.5 mm
11:50 AM 49.0°F9.4°C 44.4°F6.9°C 84% 2.3 mph W3.7 kmh W 6.9 mph11.1 kmh 29.58 in1001.7 mb - 0.00 in0.0 mm 0.02 in0.5 mm
11:40 AM 48.2°F9.0°C 43.9°F6.6°C 85% 3.5 mph SSE5.6 kmh SSE 4.6 mph7.4 kmh 29.58 in1001.7 mb - 0.00 in0.0 mm 0.02 in0.5 mm
11:30 AM 48.0°F8.9°C 43.4°F6.3°C 84% 3.5 mph WSW5.6 kmh WSW 6.9 mph11.1 kmh 29.57 in1001.4 mb - 0.00 in0.0 mm 0.02 in0.5 mm
11:20 AM 47.5°F8.6°C 42.6°F5.9°C 83% 2.3 mph WSW3.7 kmh WSW 3.5 mph5.6 kmh 29.57 in1001.4 mb - 0.00 in0.0 mm 0.02 in0.5 mm
11:10 AM 48.3°F9.1°C 43.4°F6.3°C 83% 2.3 mph S3.7 kmh S 5.8 mph9.3 kmh 29.57 in1001.4 mb - 0.00 in0.0 mm 0.02 in0.5 mm
11:00 AM 46.9°F8.3°C 42.9°F6.1°C 86% 2.3 mph WNW3.7 kmh WNW 5.8 mph9.3 kmh 29.57 in1001.4 mb - 0.00 in0.0 mm 0.02 in0.5 mm
10:50 AM 46.5°F8.1°C 42.0°F5.6°C 84% 4.6 mph WNW7.4 kmh WNW 8.1 mph13.0 kmh 29.57 in1001.4 mb - 0.00 in0.0 mm 0.02 in0.5 mm
10:40 AM 47.0°F8.3°C 42.5°F5.8°C 84% 5.8 mph W9.3 kmh W 5.8 mph9.3 kmh 29.57 in1001.4 mb - 0.00 in0.0 mm 0.02 in0.5 mm
10:30 AM 47.3°F8.5°C 43.0°F6.1°C 85% 2.3 mph WSW3.7 kmh WSW 4.6 mph7.4 kmh 29.57 in1001.4 mb - 0.00 in0.0 mm 0.02 in0.5 mm
10:20 AM 47.1°F8.4°C 42.8°F6.0°C 85% 2.3 mph S3.7 kmh S 4.6 mph7.4 kmh 29.56 in1001.0 mb - 0.00 in0.0 mm 0.02 in0.5 mm
10:10 AM 46.9°F8.3°C 42.6°F5.9°C 85% 2.3 mph SW3.7 kmh SW 4.6 mph7.4 kmh 29.56 in1001.0 mb - 0.00 in0.0 mm 0.02 in0.5 mm
10:00 AM 46.8°F8.2°C 42.5°F5.8°C 85% 1.2 mph WNW1.9 kmh WNW 2.3 mph3.7 kmh 29.56 in1001.0 mb - 0.00 in0.0 mm 0.02 in0.5 mm
09:50 AM 47.0°F8.3°C 42.7°F5.9°C 85% 3.5 mph S5.6 kmh S 3.5 mph5.6 kmh 29.56 in1001.0 mb - 0.00 in0.0 mm 0.02 in0.5 mm
09:40 AM 47.0°F8.3°C 43.3°F6.3°C 87% 4.6 mph SE7.4 kmh SE 6.9 mph11.1 kmh 29.56 in1001.0 mb - 0.00 in0.0 mm 0.02 in0.5 mm
09:30 AM 46.9°F8.3°C 43.3°F6.3°C 87% 4.6 mph SE7.4 kmh SE 5.8 mph9.3 kmh 29.56 in1001.0 mb - 0.00 in0.0 mm 0.02 in0.5 mm
09:20 AM 46.5°F8.1°C 43.1°F6.2°C 88% 6.9 mph SE11.1 kmh SE 10.4 mph16.7 kmh 29.56 in1001.0 mb - 0.00 in0.0 mm 0.02 in0.5 mm
09:10 AM 45.8°F7.7°C 42.4°F5.8°C 88% 4.6 mph SE7.4 kmh SE 4.6 mph7.4 kmh 29.56 in1001.0 mb - 0.00 in0.0 mm 0.02 in0.5 mm
09:00 AM 45.7°F7.6°C 42.7°F5.9°C 89% 4.6 mph SSW7.4 kmh SSW 6.9 mph11.1 kmh 29.56 in1001.0 mb - 0.00 in0.0 mm 0.02 in0.5 mm
08:50 AM 45.5°F7.5°C 42.4°F5.8°C 89% 2.3 mph SE3.7 kmh SE 4.6 mph7.4 kmh 29.55 in1000.7 mb - 0.00 in0.0 mm 0.02 in0.5 mm
08:40 AM 45.4°F7.4°C 42.3°F5.7°C 89% 2.3 mph S3.7 kmh S 3.5 mph5.6 kmh 29.55 in1000.7 mb - 0.00 in0.0 mm 0.02 in0.5 mm
08:30 AM 45.2°F7.3°C 42.2°F5.7°C 89% 2.3 mph S3.7 kmh S 4.6 mph7.4 kmh 29.55 in1000.7 mb - 0.00 in0.0 mm 0.02 in0.5 mm
08:20 AM 45.1°F7.3°C 42.3°F5.7°C 90% 3.5 mph SSE5.6 kmh SSE 4.6 mph7.4 kmh 29.55 in1000.7 mb - 0.00 in0.0 mm 0.02 in0.5 mm
08:10 AM 44.8°F7.1°C 42.0°F5.6°C 90% 3.5 mph SSE5.6 kmh SSE 3.5 mph5.6 kmh 29.55 in1000.7 mb - 0.00 in0.0 mm 0.02 in0.5 mm
08:00 AM 44.5°F6.9°C 41.8°F5.4°C 90% 3.5 mph SSE5.6 kmh SSE 4.6 mph7.4 kmh 29.55 in1000.7 mb - 0.00 in0.0 mm 0.02 in0.5 mm
07:50 AM 44.5°F6.9°C 41.7°F5.4°C 90% 3.5 mph S5.6 kmh S 4.6 mph7.4 kmh 29.55 in1000.7 mb - 0.00 in0.0 mm 0.02 in0.5 mm
07:40 AM 44.3°F6.8°C 41.5°F5.3°C 90% 2.3 mph SE3.7 kmh SE 4.6 mph7.4 kmh 29.55 in1000.7 mb - 0.00 in0.0 mm 0.02 in0.5 mm
07:30 AM 44.1°F6.7°C 41.4°F5.2°C 90% 2.3 mph SE3.7 kmh SE 4.6 mph7.4 kmh 29.55 in1000.7 mb - 0.00 in0.0 mm 0.02 in0.5 mm
07:20 AM 43.9°F6.6°C 41.2°F5.1°C 90% 2.3 mph SE3.7 kmh SE 3.5 mph5.6 kmh 29.55 in1000.7 mb - 0.00 in0.0 mm 0.02 in0.5 mm
07:10 AM 43.6°F6.4°C 40.9°F4.9°C 90% 2.3 mph ESE3.7 kmh ESE 5.8 mph9.3 kmh 29.54 in1000.3 mb - 0.00 in0.0 mm 0.02 in0.5 mm
07:00 AM 43.4°F6.3°C 40.6°F4.8°C 90% 4.6 mph ESE7.4 kmh ESE 4.6 mph7.4 kmh 29.54 in1000.3 mb - 0.00 in0.0 mm 0.02 in0.5 mm
06:50 AM 43.3°F6.3°C 40.6°F4.8°C 90% 5.8 mph SE9.3 kmh SE 9.2 mph14.8 kmh 29.54 in1000.3 mb - 0.00 in0.0 mm 0.02 in0.5 mm
06:40 AM 43.1°F6.2°C 40.4°F4.7°C 90% 4.6 mph SE7.4 kmh SE 8.1 mph13.0 kmh 29.54 in1000.3 mb - 0.00 in0.0 mm 0.02 in0.5 mm
06:30 AM 42.9°F6.1°C 40.2°F4.6°C 90% 1.2 mph SE1.9 kmh SE 6.9 mph11.1 kmh 29.54 in1000.3 mb - 0.00 in0.0 mm 0.02 in0.5 mm
06:20 AM 42.8°F6.0°C 40.4°F4.7°C 91% 4.6 mph SE7.4 kmh SE 8.1 mph13.0 kmh 29.54 in1000.3 mb - 0.00 in0.0 mm 0.02 in0.5 mm
06:10 AM 42.7°F5.9°C 40.2°F4.6°C 91% 3.5 mph ESE5.6 kmh ESE 6.9 mph11.1 kmh 29.54 in1000.3 mb - 0.00 in0.0 mm 0.02 in0.5 mm
06:00 AM 42.6°F5.9°C 40.2°F4.6°C 91% 3.5 mph SE5.6 kmh SE 5.8 mph9.3 kmh 29.54 in1000.3 mb - 0.00 in0.0 mm 0.02 in0.5 mm
05:50 AM 42.5°F5.8°C 40.1°F4.5°C 91% 2.3 mph SE3.7 kmh SE 4.6 mph7.4 kmh 29.54 in1000.3 mb - 0.00 in0.0 mm 0.02 in0.5 mm
05:40 AM 42.5°F5.8°C 40.1°F4.5°C 91% 4.6 mph SE7.4 kmh SE 6.9 mph11.1 kmh 29.54 in1000.3 mb - 0.00 in0.0 mm 0.02 in0.5 mm
05:30 AM 42.6°F5.9°C 40.2°F4.6°C 91% 2.3 mph SE3.7 kmh SE 3.5 mph5.6 kmh 29.55 in1000.7 mb - 0.00 in0.0 mm 0.02 in0.5 mm
05:20 AM 42.5°F5.8°C 40.1°F4.5°C 91% 2.3 mph SE3.7 kmh SE 4.6 mph7.4 kmh 29.55 in1000.7 mb - 0.00 in0.0 mm 0.02 in0.5 mm
05:10 AM 42.6°F5.9°C 40.1°F4.5°C 91% 4.6 mph ESE7.4 kmh ESE 8.1 mph13.0 kmh 29.55 in1000.7 mb - 0.00 in0.0 mm 0.02 in0.5 mm
05:00 AM 42.6°F5.9°C 40.2°F4.6°C 91% 4.6 mph E7.4 kmh E 6.9 mph11.1 kmh 29.55 in1000.7 mb - 0.00 in0.0 mm 0.02 in0.5 mm
04:50 AM 42.6°F5.9°C 39.9°F4.4°C 90% 4.6 mph SE7.4 kmh SE 6.9 mph11.1 kmh 29.55 in1000.7 mb - 0.00 in0.0 mm 0.02 in0.5 mm
04:40 AM 42.7°F5.9°C 40.0°F4.4°C 90% 2.3 mph SE3.7 kmh SE 3.5 mph5.6 kmh 29.55 in1000.7 mb - 0.01 in0.3 mm 0.02 in0.5 mm
04:30 AM 42.7°F5.9°C 40.0°F4.4°C 90% 4.6 mph ESE7.4 kmh ESE 8.1 mph13.0 kmh 29.55 in1000.7 mb - 0.00 in0.0 mm 0.01 in0.3 mm
04:20 AM 42.8°F6.0°C 40.1°F4.5°C 90% 4.6 mph SE7.4 kmh SE 6.9 mph11.1 kmh 29.56 in1001.0 mb - 0.01 in0.3 mm 0.01 in0.3 mm
04:10 AM 42.7°F5.9°C 39.7°F4.3°C 89% 2.3 mph SE3.7 kmh SE 3.5 mph5.6 kmh 29.56 in1001.0 mb - 0.00 in0.0 mm 0.00 in0.0 mm
04:00 AM 42.7°F5.9°C 39.7°F4.3°C 89% 2.3 mph SE3.7 kmh SE 4.6 mph7.4 kmh 29.56 in1001.0 mb - 0.00 in0.0 mm 0.00 in0.0 mm
03:50 AM 42.7°F5.9°C 39.7°F4.3°C 89% Calm Calm -- 29.56 in1001.0 mb - 0.00 in0.0 mm 0.00 in0.0 mm
03:40 AM 42.8°F6.0°C 40.1°F4.5°C 90% 2.3 mph SE3.7 kmh SE 3.5 mph5.6 kmh 29.56 in1001.0 mb - 0.00 in0.0 mm 0.00 in0.0 mm
03:30 AM 42.8°F6.0°C 40.1°F4.5°C 90% 2.3 mph SE3.7 kmh SE 6.9 mph11.1 kmh 29.56 in1001.0 mb - 0.00 in0.0 mm 0.00 in0.0 mm
03:20 AM 42.8°F6.0°C 40.1°F4.5°C 90% Calm Calm 2.3 mph3.7 kmh 29.56 in1001.0 mb - 0.00 in0.0 mm 0.00 in0.0 mm
03:10 AM 42.7°F5.9°C 40.0°F4.4°C 90% 2.3 mph SE3.7 kmh SE 3.5 mph5.6 kmh 29.56 in1001.0 mb - 0.00 in0.0 mm 0.00 in0.0 mm
03:00 AM 42.7°F5.9°C 40.0°F4.4°C 90% 2.3 mph ESE3.7 kmh ESE 4.6 mph7.4 kmh 29.56 in1001.0 mb - 0.00 in0.0 mm 0.00 in0.0 mm
02:50 AM 42.7°F5.9°C 40.0°F4.4°C 90% 3.5 mph SE5.6 kmh SE 3.5 mph5.6 kmh 29.57 in1001.4 mb - 0.00 in0.0 mm 0.00 in0.0 mm
02:40 AM 42.7°F5.9°C 40.0°F4.4°C 90% 3.5 mph ESE5.6 kmh ESE 5.8 mph9.3 kmh 29.57 in1001.4 mb - 0.00 in0.0 mm 0.00 in0.0 mm
02:30 AM 42.7°F5.9°C 40.0°F4.4°C 90% 2.3 mph SE3.7 kmh SE 3.5 mph5.6 kmh 29.57 in1001.4 mb - 0.00 in0.0 mm 0.00 in0.0 mm
02:20 AM 42.7°F5.9°C 40.0°F4.4°C 90% 2.3 mph SE3.7 kmh SE 4.6 mph7.4 kmh 29.57 in1001.4 mb - 0.00 in0.0 mm 0.00 in0.0 mm
02:10 AM 42.7°F5.9°C 40.0°F4.4°C 90% 3.5 mph SE5.6 kmh SE 4.6 mph7.4 kmh 29.57 in1001.4 mb - 0.00 in0.0 mm 0.00 in0.0 mm
02:00 AM 42.7°F5.9°C 40.0°F4.4°C 90% 3.5 mph SE5.6 kmh SE 4.6 mph7.4 kmh 29.57 in1001.4 mb - 0.00 in0.0 mm 0.00 in0.0 mm
01:50 AM 42.7°F5.9°C 40.0°F4.4°C 90% 1.2 mph SE1.9 kmh SE 3.5 mph5.6 kmh 29.57 in1001.4 mb - 0.00 in0.0 mm 0.00 in0.0 mm
01:40 AM 42.7°F5.9°C 40.0°F4.4°C 90% 2.3 mph SE3.7 kmh SE 5.8 mph9.3 kmh 29.57 in1001.4 mb - 0.00 in0.0 mm 0.00 in0.0 mm
01:30 AM 42.6°F5.9°C 39.9°F4.4°C 90% Calm Calm 3.5 mph5.6 kmh 29.58 in1001.7 mb - 0.00 in0.0 mm 0.00 in0.0 mm
01:20 AM 42.5°F5.8°C 39.8°F4.3°C 90% Calm Calm -- 29.58 in1001.7 mb - 0.00 in0.0 mm 0.00 in0.0 mm
01:10 AM 42.4°F5.8°C 39.7°F4.3°C 90% Calm Calm -- 29.58 in1001.7 mb - 0.00 in0.0 mm 0.00 in0.0 mm
01:00 AM 42.5°F5.8°C 39.8°F4.3°C 90% Calm Calm -- 29.58 in1001.7 mb - 0.00 in0.0 mm 0.00 in0.0 mm
12:50 AM 42.5°F5.8°C 39.8°F4.3°C 90% Calm Calm -- 29.58 in1001.7 mb - 0.00 in0.0 mm 0.00 in0.0 mm
12:40 AM 42.8°F6.0°C 40.1°F4.5°C 90% Calm Calm -- 29.58 in1001.7 mb - 0.00 in0.0 mm 0.00 in0.0 mm
12:30 AM 43.1°F6.2°C 40.4°F4.7°C 90% Calm Calm -- 29.58 in1001.7 mb - 0.00 in0.0 mm 0.00 in0.0 mm
12:20 AM 43.1°F6.2°C 40.4°F4.7°C 90% Calm Calm -- 29.58 in1001.7 mb - 0.00 in0.0 mm 0.00 in0.0 mm
12:10 AM 43.1°F6.2°C 40.4°F4.7°C 90% Calm Calm -- 29.58 in1001.7 mb - 0.00 in0.0 mm 0.00 in0.0 mm
12:00 AM 43.2°F6.2°C 40.5°F4.7°C 90% Calm Calm -- 29.58 in1001.7 mb - 0.00 in0.0 mm 0.00 in0.0 mm